sensor_id;sensor_type;location;lat;lon;timestamp;temperature;humidity
21255;DHT22;10785;50.674;17.954;2024-03-07T00:02:04;4.10;36.90
21255;DHT22;10785;50.674;17.954;2024-03-07T00:04:42;3.90;1.00
21255;DHT22;10785;50.674;17.954;2024-03-07T00:07:19;3.80;1.00
21255;DHT22;10785;50.674;17.954;2024-03-07T00:09:52;3.90;1.00
21255;DHT22;10785;50.674;17.954;2024-03-07T00:12:39;3.90;1.00
21255;DHT22;10785;50.674;17.954;2024-03-07T00:15:33;4.10;1.00
21255;DHT22;10785;50.674;17.954;2024-03-07T00:18:26;4.40;1.00
21255;DHT22;10785;50.674;17.954;2024-03-07T00:21:04;3.70;1.00
21255;DHT22;10785;50.674;17.954;2024-03-07T00:23:43;4.00;1.00
21255;DHT22;10785;50.674;17.954;2024-03-07T00:26:22;4.60;1.00
21255;DHT22;10785;50.674;17.954;2024-03-07T00:29:00;4.00;1.00
21255;DHT22;10785;50.674;17.954;2024-03-07T00:31:37;4.70;99.90
21255;DHT22;10785;50.674;17.954;2024-03-07T00:34:17;4.10;99.90
21255;DHT22;10785;50.674;17.954;2024-03-07T00:36:58;3.90;99.90
21255;DHT22;10785;50.674;17.954;2024-03-07T00:39:45;4.40;1.00
21255;DHT22;10785;50.674;17.954;2024-03-07T00:42:27;4.20;1.00
21255;DHT22;10785;50.674;17.954;2024-03-07T00:45:06;4.30;1.00
21255;DHT22;10785;50.674;17.954;2024-03-07T00:47:43;3.90;99.90
21255;DHT22;10785;50.674;17.954;2024-03-07T00:50:31;4.30;99.90
21255;DHT22;10785;50.674;17.954;2024-03-07T00:53:14;4.20;96.90
21255;DHT22;10785;50.674;17.954;2024-03-07T00:56:05;3.90;1.00
21255;DHT22;10785;50.674;17.954;2024-03-07T00:58:50;3.90;1.00
21255;DHT22;10785;50.674;17.954;2024-03-07T01:01:35;4.30;1.00
21255;DHT22;10785;50.674;17.954;2024-03-07T01:04:12;4.00;1.00
21255;DHT22;10785;50.674;17.954;2024-03-07T01:06:59;4.00;1.00
21255;DHT22;10785;50.674;17.954;2024-03-07T01:09:37;4.00;58.30
21255;DHT22;10785;50.674;17.954;2024-03-07T01:12:19;4.20;99.90
21255;DHT22;10785;50.674;17.954;2024-03-07T01:15:04;3.90;99.90
21255;DHT22;10785;50.674;17.954;2024-03-07T01:17:44;4.00;99.90
21255;DHT22;10785;50.674;17.954;2024-03-07T01:20:23;3.80;99.90
21255;DHT22;10785;50.674;17.954;2024-03-07T01:22:57;4.00;1.00
21255;DHT22;10785;50.674;17.954;2024-03-07T01:25:32;4.10;1.00
21255;DHT22;10785;50.674;17.954;2024-03-07T01:28:15;4.30;1.00
21255;DHT22;10785;50.674;17.954;2024-03-07T01:31:05;3.90;1.00
21255;DHT22;10785;50.674;17.954;2024-03-07T01:33:51;4.10;1.00
21255;DHT22;10785;50.674;17.954;2024-03-07T01:36:33;3.90;1.00
21255;DHT22;10785;50.674;17.954;2024-03-07T01:39:13;4.80;1.00
21255;DHT22;10785;50.674;17.954;2024-03-07T01:41:59;4.30;1.00
21255;DHT22;10785;50.674;17.954;2024-03-07T01:44:55;4.00;1.00
21255;DHT22;10785;50.674;17.954;2024-03-07T01:47:34;3.70;1.00
21255;DHT22;10785;50.674;17.954;2024-03-07T01:50:13;4.10;1.00
21255;DHT22;10785;50.674;17.954;2024-03-07T01:52:56;4.40;1.00
21255;DHT22;10785;50.674;17.954;2024-03-07T01:55:38;4.50;99.90
21255;DHT22;10785;50.674;17.954;2024-03-07T01:58:18;4.30;99.90
21255;DHT22;10785;50.674;17.954;2024-03-07T02:01:04;3.90;61.70
21255;DHT22;10785;50.674;17.954;2024-03-07T02:03:45;3.60;1.00
21255;DHT22;10785;50.674;17.954;2024-03-07T02:06:26;3.90;1.00
21255;DHT22;10785;50.674;17.954;2024-03-07T02:09:06;4.50;1.00
21255;DHT22;10785;50.674;17.954;2024-03-07T02:11:57;4.10;1.00
21255;DHT22;10785;50.674;17.954;2024-03-07T02:14:41;3.90;1.00
21255;DHT22;10785;50.674;17.954;2024-03-07T02:17:26;3.70;1.00
21255;DHT22;10785;50.674;17.954;2024-03-07T02:20:05;3.80;1.00
21255;DHT22;10785;50.674;17.954;2024-03-07T02:22:51;3.70;1.00
21255;DHT22;10785;50.674;17.954;2024-03-07T02:25:33;3.70;1.00
21255;DHT22;10785;50.674;17.954;2024-03-07T02:28:08;3.80;1.00
21255;DHT22;10785;50.674;17.954;2024-03-07T02:30:50;4.10;1.00
21255;DHT22;10785;50.674;17.954;2024-03-07T02:33:27;4.30;1.00
21255;DHT22;10785;50.674;17.954;2024-03-07T02:36:11;3.80;1.00
21255;DHT22;10785;50.674;17.954;2024-03-07T02:38:54;3.70;1.00
21255;DHT22;10785;50.674;17.954;2024-03-07T02:41:37;3.90;1.00
21255;DHT22;10785;50.674;17.954;2024-03-07T02:44:30;3.60;1.00
21255;DHT22;10785;50.674;17.954;2024-03-07T02:47:19;3.40;1.00
21255;DHT22;10785;50.674;17.954;2024-03-07T02:50:03;3.90;1.00
21255;DHT22;10785;50.674;17.954;2024-03-07T02:52:48;3.50;1.00
21255;DHT22;10785;50.674;17.954;2024-03-07T02:58:31;3.50;1.00
21255;DHT22;10785;50.674;17.954;2024-03-07T03:01:26;3.50;1.00
21255;DHT22;10785;50.674;17.954;2024-03-07T03:04:07;3.60;76.10
21255;DHT22;10785;50.674;17.954;2024-03-07T03:06:50;3.80;99.90
21255;DHT22;10785;50.674;17.954;2024-03-07T03:09:31;3.40;99.90
21255;DHT22;10785;50.674;17.954;2024-03-07T03:12:23;3.50;1.00
21255;DHT22;10785;50.674;17.954;2024-03-07T03:15:17;3.40;1.00
21255;DHT22;10785;50.674;17.954;2024-03-07T03:18:00;3.30;1.00
21255;DHT22;10785;50.674;17.954;2024-03-07T03:20:38;3.40;1.00
21255;DHT22;10785;50.674;17.954;2024-03-07T03:23:11;3.70;1.00
21255;DHT22;10785;50.674;17.954;2024-03-07T03:25:53;3.30;1.00
21255;DHT22;10785;50.674;17.954;2024-03-07T03:28:31;3.80;1.00
21255;DHT22;10785;50.674;17.954;2024-03-07T03:31:18;3.30;1.00
21255;DHT22;10785;50.674;17.954;2024-03-07T03:33:55;3.10;99.90
21255;DHT22;10785;50.674;17.954;2024-03-07T03:36:35;3.20;99.90
21255;DHT22;10785;50.674;17.954;2024-03-07T03:39:08;3.30;1.00
21255;DHT22;10785;50.674;17.954;2024-03-07T03:41:54;3.40;99.90
21255;DHT22;10785;50.674;17.954;2024-03-07T03:44:37;3.30;99.90
21255;DHT22;10785;50.674;17.954;2024-03-07T03:47:26;3.10;99.90
21255;DHT22;10785;50.674;17.954;2024-03-07T03:50:05;3.00;99.90
21255;DHT22;10785;50.674;17.954;2024-03-07T03:52:43;3.00;1.00
21255;DHT22;10785;50.674;17.954;2024-03-07T03:55:28;3.10;1.00
21255;DHT22;10785;50.674;17.954;2024-03-07T03:58:01;3.00;1.00
21255;DHT22;10785;50.674;17.954;2024-03-07T04:00:44;3.10;1.00
21255;DHT22;10785;50.674;17.954;2024-03-07T04:03:18;2.90;1.00
21255;DHT22;10785;50.674;17.954;2024-03-07T04:06:05;2.90;1.00
21255;DHT22;10785;50.674;17.954;2024-03-07T04:08:46;2.80;1.00
21255;DHT22;10785;50.674;17.954;2024-03-07T04:11:33;2.90;1.00
21255;DHT22;10785;50.674;17.954;2024-03-07T04:14:18;2.90;1.00
21255;DHT22;10785;50.674;17.954;2024-03-07T04:17:00;3.00;99.90
21255;DHT22;10785;50.674;17.954;2024-03-07T04:19:48;3.00;99.90
21255;DHT22;10785;50.674;17.954;2024-03-07T04:22:32;2.70;99.90
21255;DHT22;10785;50.674;17.954;2024-03-07T04:25:20;3.00;99.90
21255;DHT22;10785;50.674;17.954;2024-03-07T04:28:08;2.70;99.90
21255;DHT22;10785;50.674;17.954;2024-03-07T04:30:50;2.90;99.90
21255;DHT22;10785;50.674;17.954;2024-03-07T04:33:33;2.70;99.90
21255;DHT22;10785;50.674;17.954;2024-03-07T04:36:22;2.60;1.00
21255;DHT22;10785;50.674;17.954;2024-03-07T04:39:05;2.60;99.90
21255;DHT22;10785;50.674;17.954;2024-03-07T04:41:59;3.00;99.90
21255;DHT22;10785;50.674;17.954;2024-03-07T04:44:36;2.50;99.90
21255;DHT22;10785;50.674;17.954;2024-03-07T04:47:14;3.00;99.90
21255;DHT22;10785;50.674;17.954;2024-03-07T04:50:04;2.40;1.00
21255;DHT22;10785;50.674;17.954;2024-03-07T04:52:56;2.30;1.00
21255;DHT22;10785;50.674;17.954;2024-03-07T04:55:37;2.30;1.00
21255;DHT22;10785;50.674;17.954;2024-03-07T04:58:15;2.70;16.40
21255;DHT22;10785;50.674;17.954;2024-03-07T05:00:55;2.20;5.50
21255;DHT22;10785;50.674;17.954;2024-03-07T05:03:25;2.10;1.00
21255;DHT22;10785;50.674;17.954;2024-03-07T05:05:55;2.00;1.00
21255;DHT22;10785;50.674;17.954;2024-03-07T05:08:26;2.10;1.00
21255;DHT22;10785;50.674;17.954;2024-03-07T05:10:56;1.90;99.90
21255;DHT22;10785;50.674;17.954;2024-03-07T05:13:25;2.00;99.90
21255;DHT22;10785;50.674;17.954;2024-03-07T05:15:54;2.00;99.90
21255;DHT22;10785;50.674;17.954;2024-03-07T05:18:23;1.50;1.00
21255;DHT22;10785;50.674;17.954;2024-03-07T05:20:52;1.70;1.00
21255;DHT22;10785;50.674;17.954;2024-03-07T05:23:22;1.50;1.00
21255;DHT22;10785;50.674;17.954;2024-03-07T05:25:53;1.50;99.90
21255;DHT22;10785;50.674;17.954;2024-03-07T05:28:22;1.60;99.90
21255;DHT22;10785;50.674;17.954;2024-03-07T05:30:52;1.90;99.90
21255;DHT22;10785;50.674;17.954;2024-03-07T05:33:21;1.50;1.00
21255;DHT22;10785;50.674;17.954;2024-03-07T05:35:51;1.30;1.00
21255;DHT22;10785;50.674;17.954;2024-03-07T05:38:30;1.40;1.00
21255;DHT22;10785;50.674;17.954;2024-03-07T05:41:07;1.40;99.90
21255;DHT22;10785;50.674;17.954;2024-03-07T05:43:40;1.30;99.90
21255;DHT22;10785;50.674;17.954;2024-03-07T05:46:23;1.40;1.00
21255;DHT22;10785;50.674;17.954;2024-03-07T05:49:05;1.40;1.00
21255;DHT22;10785;50.674;17.954;2024-03-07T05:51:49;1.80;1.00
21255;DHT22;10785;50.674;17.954;2024-03-07T05:54:28;1.50;1.00
21255;DHT22;10785;50.674;17.954;2024-03-07T05:57:13;1.50;99.90
21255;DHT22;10785;50.674;17.954;2024-03-07T06:00:05;1.40;99.90
21255;DHT22;10785;50.674;17.954;2024-03-07T06:02:58;1.50;99.90
21255;DHT22;10785;50.674;17.954;2024-03-07T06:05:39;1.50;99.90
21255;DHT22;10785;50.674;17.954;2024-03-07T06:08:26;1.60;1.00
21255;DHT22;10785;50.674;17.954;2024-03-07T06:11:10;1.50;6.80
21255;DHT22;10785;50.674;17.954;2024-03-07T06:14:02;1.60;1.00
21255;DHT22;10785;50.674;17.954;2024-03-07T06:16:44;2.00;1.00
21255;DHT22;10785;50.674;17.954;2024-03-07T06:19:29;1.60;1.00
21255;DHT22;10785;50.674;17.954;2024-03-07T06:22:09;1.60;1.00
21255;DHT22;10785;50.674;17.954;2024-03-07T06:24:54;1.60;1.00
21255;DHT22;10785;50.674;17.954;2024-03-07T06:27:40;1.90;1.00
21255;DHT22;10785;50.674;17.954;2024-03-07T06:30:32;1.80;1.00
21255;DHT22;10785;50.674;17.954;2024-03-07T06:33:17;1.80;1.00
21255;DHT22;10785;50.674;17.954;2024-03-07T06:36:05;1.90;1.00
21255;DHT22;10785;50.674;17.954;2024-03-07T06:38:44;1.70;1.00
21255;DHT22;10785;50.674;17.954;2024-03-07T06:41:28;1.80;1.00
21255;DHT22;10785;50.674;17.954;2024-03-07T06:44:16;2.00;1.00
21255;DHT22;10785;50.674;17.954;2024-03-07T06:47:04;1.90;99.90
21255;DHT22;10785;50.674;17.954;2024-03-07T06:50:01;1.90;99.90
21255;DHT22;10785;50.674;17.954;2024-03-07T06:53:09;2.10;99.90
21255;DHT22;10785;50.674;17.954;2024-03-07T06:55:58;1.90;99.90
21255;DHT22;10785;50.674;17.954;2024-03-07T06:58:50;2.10;99.90
21255;DHT22;10785;50.674;17.954;2024-03-07T07:01:38;1.80;1.00
21255;DHT22;10785;50.674;17.954;2024-03-07T07:04:28;2.00;99.90
21255;DHT22;10785;50.674;17.954;2024-03-07T07:07:23;2.00;99.90
21255;DHT22;10785;50.674;17.954;2024-03-07T07:09:57;1.90;99.90
21255;DHT22;10785;50.674;17.954;2024-03-07T07:12:51;2.10;99.90
21255;DHT22;10785;50.674;17.954;2024-03-07T07:15:39;2.10;1.00
21255;DHT22;10785;50.674;17.954;2024-03-07T07:18:27;2.20;1.00
21255;DHT22;10785;50.674;17.954;2024-03-07T07:21:16;2.20;1.00
21255;DHT22;10785;50.674;17.954;2024-03-07T07:24:00;2.20;1.00
21255;DHT22;10785;50.674;17.954;2024-03-07T07:26:50;2.20;1.00
21255;DHT22;10785;50.674;17.954;2024-03-07T07:29:33;2.30;1.00
21255;DHT22;10785;50.674;17.954;2024-03-07T07:32:09;2.20;1.00
21255;DHT22;10785;50.674;17.954;2024-03-07T07:35:04;2.60;1.00
21255;DHT22;10785;50.674;17.954;2024-03-07T07:37:53;2.40;1.00
21255;DHT22;10785;50.674;17.954;2024-03-07T07:40:28;2.60;1.00
21255;DHT22;10785;50.674;17.954;2024-03-07T07:43:00;2.70;1.00
21255;DHT22;10785;50.674;17.954;2024-03-07T07:45:40;2.80;1.00
21255;DHT22;10785;50.674;17.954;2024-03-07T07:48:25;2.70;1.00
21255;DHT22;10785;50.674;17.954;2024-03-07T07:51:15;3.20;1.00
21255;DHT22;10785;50.674;17.954;2024-03-07T07:54:09;3.20;1.00
21255;DHT22;10785;50.674;17.954;2024-03-07T07:56:55;2.80;1.00
21255;DHT22;10785;50.674;17.954;2024-03-07T07:59:45;2.90;1.00
21255;DHT22;10785;50.674;17.954;2024-03-07T08:02:35;3.00;1.00
21255;DHT22;10785;50.674;17.954;2024-03-07T08:05:25;3.50;1.00
21255;DHT22;10785;50.674;17.954;2024-03-07T08:08:10;3.10;1.00
21255;DHT22;10785;50.674;17.954;2024-03-07T08:11:04;3.10;1.00
21255;DHT22;10785;50.674;17.954;2024-03-07T08:13:58;3.20;1.00
21255;DHT22;10785;50.674;17.954;2024-03-07T08:16:51;3.30;1.00
21255;DHT22;10785;50.674;17.954;2024-03-07T08:19:43;3.40;1.00
21255;DHT22;10785;50.674;17.954;2024-03-07T08:22:21;3.40;1.00
21255;DHT22;10785;50.674;17.954;2024-03-07T08:25:00;3.30;1.00
21255;DHT22;10785;50.674;17.954;2024-03-07T08:27:51;3.30;1.00
21255;DHT22;10785;50.674;17.954;2024-03-07T08:30:34;3.40;1.00
21255;DHT22;10785;50.674;17.954;2024-03-07T08:33:18;3.40;1.00
21255;DHT22;10785;50.674;17.954;2024-03-07T08:35:59;3.80;1.00
21255;DHT22;10785;50.674;17.954;2024-03-07T08:38:48;3.40;1.00
21255;DHT22;10785;50.674;17.954;2024-03-07T08:41:31;3.40;1.00
21255;DHT22;10785;50.674;17.954;2024-03-07T08:44:20;3.50;1.00
21255;DHT22;10785;50.674;17.954;2024-03-07T08:47:05;3.60;1.00
21255;DHT22;10785;50.674;17.954;2024-03-07T08:49:48;3.70;1.00
21255;DHT22;10785;50.674;17.954;2024-03-07T08:52:21;3.60;1.00
21255;DHT22;10785;50.674;17.954;2024-03-07T08:58:10;3.50;1.00
21255;DHT22;10785;50.674;17.954;2024-03-07T09:00:54;3.80;1.00
21255;DHT22;10785;50.674;17.954;2024-03-07T09:03:37;3.80;1.00
21255;DHT22;10785;50.674;17.954;2024-03-07T09:06:18;3.80;1.00
21255;DHT22;10785;50.674;17.954;2024-03-07T09:09:00;4.00;99.90
21255;DHT22;10785;50.674;17.954;2024-03-07T09:11:41;4.00;99.90
21255;DHT22;10785;50.674;17.954;2024-03-07T09:14:26;4.20;99.90
21255;DHT22;10785;50.674;17.954;2024-03-07T09:17:05;4.00;99.90
21255;DHT22;10785;50.674;17.954;2024-03-07T09:19:53;4.20;99.90
21255;DHT22;10785;50.674;17.954;2024-03-07T09:22:36;4.30;99.90
21255;DHT22;10785;50.674;17.954;2024-03-07T09:25:10;4.20;99.90
21255;DHT22;10785;50.674;17.954;2024-03-07T09:27:56;4.20;99.90
21255;DHT22;10785;50.674;17.954;2024-03-07T09:30:41;4.70;99.90
21255;DHT22;10785;50.674;17.954;2024-03-07T09:33:31;4.20;99.90
21255;DHT22;10785;50.674;17.954;2024-03-07T09:36:11;4.30;99.90
21255;DHT22;10785;50.674;17.954;2024-03-07T09:38:55;4.20;99.90
21255;DHT22;10785;50.674;17.954;2024-03-07T09:41:37;5.00;99.90
21255;DHT22;10785;50.674;17.954;2024-03-07T09:44:18;4.40;99.90
21255;DHT22;10785;50.674;17.954;2024-03-07T09:47:04;4.50;99.90
21255;DHT22;10785;50.674;17.954;2024-03-07T09:49:50;4.60;99.90
21255;DHT22;10785;50.674;17.954;2024-03-07T09:52:40;4.70;99.90
21255;DHT22;10785;50.674;17.954;2024-03-07T09:55:29;5.40;99.90
21255;DHT22;10785;50.674;17.954;2024-03-07T09:58:16;4.70;99.90
21255;DHT22;10785;50.674;17.954;2024-03-07T10:01:04;5.00;99.90
21255;DHT22;10785;50.674;17.954;2024-03-07T10:03:57;4.80;99.90
21255;DHT22;10785;50.674;17.954;2024-03-07T10:06:52;5.60;99.90
21255;DHT22;10785;50.674;17.954;2024-03-07T10:09:41;5.90;99.90
21255;DHT22;10785;50.674;17.954;2024-03-07T10:12:30;5.40;99.90
21255;DHT22;10785;50.674;17.954;2024-03-07T10:15:20;5.50;99.90
21255;DHT22;10785;50.674;17.954;2024-03-07T10:17:57;6.40;99.90
21255;DHT22;10785;50.674;17.954;2024-03-07T10:20:46;5.60;99.90
21255;DHT22;10785;50.674;17.954;2024-03-07T10:23:32;5.60;1.00
21255;DHT22;10785;50.674;17.954;2024-03-07T10:26:08;5.50;99.90
21255;DHT22;10785;50.674;17.954;2024-03-07T10:28:48;5.20;99.90
21255;DHT22;10785;50.674;17.954;2024-03-07T10:31:29;5.30;99.90
21255;DHT22;10785;50.674;17.954;2024-03-07T10:34:05;5.50;99.90
21255;DHT22;10785;50.674;17.954;2024-03-07T10:36:42;5.60;99.90
21255;DHT22;10785;50.674;17.954;2024-03-07T10:39:18;5.90;99.90
21255;DHT22;10785;50.674;17.954;2024-03-07T10:41:50;6.40;99.90
21255;DHT22;10785;50.674;17.954;2024-03-07T10:44:33;6.50;99.90
21255;DHT22;10785;50.674;17.954;2024-03-07T10:47:17;6.50;99.90
21255;DHT22;10785;50.674;17.954;2024-03-07T10:49:57;6.20;99.90
21255;DHT22;10785;50.674;17.954;2024-03-07T10:52:49;5.80;99.90
21255;DHT22;10785;50.674;17.954;2024-03-07T10:55:33;5.70;99.90
21255;DHT22;10785;50.674;17.954;2024-03-07T10:58:13;5.90;99.90
21255;DHT22;10785;50.674;17.954;2024-03-07T11:00:47;5.00;99.90
21255;DHT22;10785;50.674;17.954;2024-03-07T11:03:36;5.20;99.90
21255;DHT22;10785;50.674;17.954;2024-03-07T11:06:28;5.20;99.90
21255;DHT22;10785;50.674;17.954;2024-03-07T11:09:13;6.10;99.90
21255;DHT22;10785;50.674;17.954;2024-03-07T11:12:10;6.00;99.90
21255;DHT22;10785;50.674;17.954;2024-03-07T11:14:51;5.90;99.90
21255;DHT22;10785;50.674;17.954;2024-03-07T11:17:35;6.10;99.90
21255;DHT22;10785;50.674;17.954;2024-03-07T11:20:21;5.90;99.90
21255;DHT22;10785;50.674;17.954;2024-03-07T11:22:58;6.20;99.90
21255;DHT22;10785;50.674;17.954;2024-03-07T11:25:55;6.10;99.90
21255;DHT22;10785;50.674;17.954;2024-03-07T11:28:56;6.90;99.90
21255;DHT22;10785;50.674;17.954;2024-03-07T11:31:48;6.20;99.90
21255;DHT22;10785;50.674;17.954;2024-03-07T11:34:41;6.10;99.90
21255;DHT22;10785;50.674;17.954;2024-03-07T11:37:42;6.00;99.90
21255;DHT22;10785;50.674;17.954;2024-03-07T11:40:48;6.00;99.90
21255;DHT22;10785;50.674;17.954;2024-03-07T11:43:37;6.40;99.90
21255;DHT22;10785;50.674;17.954;2024-03-07T11:46:29;5.70;99.90
21255;DHT22;10785;50.674;17.954;2024-03-07T11:49:23;5.90;99.90
21255;DHT22;10785;50.674;17.954;2024-03-07T11:52:11;6.10;99.90
21255;DHT22;10785;50.674;17.954;2024-03-07T11:54:58;5.90;99.90
21255;DHT22;10785;50.674;17.954;2024-03-07T11:57:42;5.60;96.30
21255;DHT22;10785;50.674;17.954;2024-03-07T12:00:27;5.90;93.20
21255;DHT22;10785;50.674;17.954;2024-03-07T12:03:11;6.30;99.90
21255;DHT22;10785;50.674;17.954;2024-03-07T12:05:57;6.00;99.90
21255;DHT22;10785;50.674;17.954;2024-03-07T12:08:42;6.10;99.90
21255;DHT22;10785;50.674;17.954;2024-03-07T12:11:30;6.10;83.90
21255;DHT22;10785;50.674;17.954;2024-03-07T12:14:21;6.30;58.60
21255;DHT22;10785;50.674;17.954;2024-03-07T12:17:01;6.00;58.70
21255;DHT22;10785;50.674;17.954;2024-03-07T12:19:50;6.90;99.90
21255;DHT22;10785;50.674;17.954;2024-03-07T12:23:00;6.30;99.90
21255;DHT22;10785;50.674;17.954;2024-03-07T12:25:58;5.90;99.90
21255;DHT22;10785;50.674;17.954;2024-03-07T12:28:38;6.00;53.80
21255;DHT22;10785;50.674;17.954;2024-03-07T12:31:30;5.90;93.00
21255;DHT22;10785;50.674;17.954;2024-03-07T12:34:08;6.10;48.70
21255;DHT22;10785;50.674;17.954;2024-03-07T12:37:02;5.80;99.90
21255;DHT22;10785;50.674;17.954;2024-03-07T12:39:41;6.00;31.60
21255;DHT22;10785;50.674;17.954;2024-03-07T12:42:35;6.20;1.00
21255;DHT22;10785;50.674;17.954;2024-03-07T12:45:16;6.20;91.30
21255;DHT22;10785;50.674;17.954;2024-03-07T12:47:46;6.00;74.80
21255;DHT22;10785;50.674;17.954;2024-03-07T12:50:19;6.20;92.30
21255;DHT22;10785;50.674;17.954;2024-03-07T12:52:50;6.10;66.40
21255;DHT22;10785;50.674;17.954;2024-03-07T12:55:20;6.00;30.00
21255;DHT22;10785;50.674;17.954;2024-03-07T12:57:51;6.70;73.70
21255;DHT22;10785;50.674;17.954;2024-03-07T13:00:20;6.30;52.00
21255;DHT22;10785;50.674;17.954;2024-03-07T13:02:50;6.00;62.30
21255;DHT22;10785;50.674;17.954;2024-03-07T13:05:20;6.10;75.30
21255;DHT22;10785;50.674;17.954;2024-03-07T13:07:51;6.10;79.40
21255;DHT22;10785;50.674;17.954;2024-03-07T13:10:21;6.10;60.90
21255;DHT22;10785;50.674;17.954;2024-03-07T13:12:51;6.10;57.50
21255;DHT22;10785;50.674;17.954;2024-03-07T13:15:21;6.10;41.90
21255;DHT22;10785;50.674;17.954;2024-03-07T13:17:52;6.00;55.40
21255;DHT22;10785;50.674;17.954;2024-03-07T13:20:23;6.10;52.20
21255;DHT22;10785;50.674;17.954;2024-03-07T13:22:55;6.20;37.10
21255;DHT22;10785;50.674;17.954;2024-03-07T13:25:29;6.60;23.40
21255;DHT22;10785;50.674;17.954;2024-03-07T13:28:03;6.10;41.20
21255;DHT22;10785;50.674;17.954;2024-03-07T13:30:35;6.00;19.80
21255;DHT22;10785;50.674;17.954;2024-03-07T13:33:05;6.00;12.30
21255;DHT22;10785;50.674;17.954;2024-03-07T13:35:37;6.30;20.70
21255;DHT22;10785;50.674;17.954;2024-03-07T13:38:09;5.90;28.10
21255;DHT22;10785;50.674;17.954;2024-03-07T13:40:40;5.80;22.20
21255;DHT22;10785;50.674;17.954;2024-03-07T13:43:09;5.70;22.60
21255;DHT22;10785;50.674;17.954;2024-03-07T13:45:38;5.70;9.10
21255;DHT22;10785;50.674;17.954;2024-03-07T13:48:10;5.70;11.60
21255;DHT22;10785;50.674;17.954;2024-03-07T13:50:42;5.90;24.20
21255;DHT22;10785;50.674;17.954;2024-03-07T13:53:27;5.70;19.50
21255;DHT22;10785;50.674;17.954;2024-03-07T13:56:28;5.90;1.00
21255;DHT22;10785;50.674;17.954;2024-03-07T13:59:25;5.70;7.90
21255;DHT22;10785;50.674;17.954;2024-03-07T14:02:08;5.90;1.00
21255;DHT22;10785;50.674;17.954;2024-03-07T14:05:24;5.60;1.00
21255;DHT22;10785;50.674;17.954;2024-03-07T14:08:20;5.70;1.00
21255;DHT22;10785;50.674;17.954;2024-03-07T14:11:27;5.70;1.00
21255;DHT22;10785;50.674;17.954;2024-03-07T14:14:47;5.70;1.00
21255;DHT22;10785;50.674;17.954;2024-03-07T14:20:59;5.80;1.00
21255;DHT22;10785;50.674;17.954;2024-03-07T14:23:42;5.90;1.00
21255;DHT22;10785;50.674;17.954;2024-03-07T14:26:45;5.90;1.00
21255;DHT22;10785;50.674;17.954;2024-03-07T14:29:24;5.90;1.00
21255;DHT22;10785;50.674;17.954;2024-03-07T14:31:56;6.00;1.00
21255;DHT22;10785;50.674;17.954;2024-03-07T14:34:36;6.20;1.00
21255;DHT22;10785;50.674;17.954;2024-03-07T14:37:18;6.00;1.00
21255;DHT22;10785;50.674;17.954;2024-03-07T14:39:52;6.00;1.00
21255;DHT22;10785;50.674;17.954;2024-03-07T14:42:25;6.00;1.00
21255;DHT22;10785;50.674;17.954;2024-03-07T14:44:55;6.40;1.00
21255;DHT22;10785;50.674;17.954;2024-03-07T14:47:24;5.70;1.00
21255;DHT22;10785;50.674;17.954;2024-03-07T14:49:54;5.70;1.00
21255;DHT22;10785;50.674;17.954;2024-03-07T14:52:23;5.80;1.00
21255;DHT22;10785;50.674;17.954;2024-03-07T14:54:53;5.80;1.00
21255;DHT22;10785;50.674;17.954;2024-03-07T14:57:22;5.80;1.00
21255;DHT22;10785;50.674;17.954;2024-03-07T14:59:53;5.80;1.00
21255;DHT22;10785;50.674;17.954;2024-03-07T15:02:23;5.70;1.00
21255;DHT22;10785;50.674;17.954;2024-03-07T15:04:54;5.70;1.00
21255;DHT22;10785;50.674;17.954;2024-03-07T15:07:23;5.60;1.00
21255;DHT22;10785;50.674;17.954;2024-03-07T15:09:53;5.50;1.00
21255;DHT22;10785;50.674;17.954;2024-03-07T15:12:25;5.80;1.00
21255;DHT22;10785;50.674;17.954;2024-03-07T15:14:56;5.70;1.00
21255;DHT22;10785;50.674;17.954;2024-03-07T15:17:36;5.60;1.00
21255;DHT22;10785;50.674;17.954;2024-03-07T15:20:08;5.50;1.00
21255;DHT22;10785;50.674;17.954;2024-03-07T15:22:42;5.50;1.00
21255;DHT22;10785;50.674;17.954;2024-03-07T15:25:13;7.10;1.00
21255;DHT22;10785;50.674;17.954;2024-03-07T15:27:46;5.40;1.00
21255;DHT22;10785;50.674;17.954;2024-03-07T15:30:19;5.30;99.90
21255;DHT22;10785;50.674;17.954;2024-03-07T15:32:49;5.30;1.00
21255;DHT22;10785;50.674;17.954;2024-03-07T15:35:19;5.60;1.00
21255;DHT22;10785;50.674;17.954;2024-03-07T15:37:49;6.10;1.00
21255;DHT22;10785;50.674;17.954;2024-03-07T15:40:20;5.30;1.00
21255;DHT22;10785;50.674;17.954;2024-03-07T15:42:51;5.50;1.00
21255;DHT22;10785;50.674;17.954;2024-03-07T15:45:24;5.70;1.00
21255;DHT22;10785;50.674;17.954;2024-03-07T15:47:54;5.40;1.00
21255;DHT22;10785;50.674;17.954;2024-03-07T15:50:28;5.40;1.00
21255;DHT22;10785;50.674;17.954;2024-03-07T15:53:04;5.30;1.00
21255;DHT22;10785;50.674;17.954;2024-03-07T15:55:41;5.60;1.00
21255;DHT22;10785;50.674;17.954;2024-03-07T15:58:12;5.40;1.00
21255;DHT22;10785;50.674;17.954;2024-03-07T16:00:49;5.30;1.00
21255;DHT22;10785;50.674;17.954;2024-03-07T16:03:38;5.30;1.00
21255;DHT22;10785;50.674;17.954;2024-03-07T16:06:18;3.60;1.00
21255;DHT22;10785;50.674;17.954;2024-03-07T16:08:52;5.20;1.00
21255;DHT22;10785;50.674;17.954;2024-03-07T16:11:21;5.20;1.00
21255;DHT22;10785;50.674;17.954;2024-03-07T16:13:52;5.20;1.00
21255;DHT22;10785;50.674;17.954;2024-03-07T16:16:23;5.60;1.00
21255;DHT22;10785;50.674;17.954;2024-03-07T16:18:53;5.30;1.00
21255;DHT22;10785;50.674;17.954;2024-03-07T16:21:25;5.40;1.00
21255;DHT22;10785;50.674;17.954;2024-03-07T16:23:55;5.20;1.00
21255;DHT22;10785;50.674;17.954;2024-03-07T16:26:33;5.40;1.00
21255;DHT22;10785;50.674;17.954;2024-03-07T16:29:03;5.30;1.00
21255;DHT22;10785;50.674;17.954;2024-03-07T16:31:34;5.10;1.00
21255;DHT22;10785;50.674;17.954;2024-03-07T16:34:04;5.20;1.00
21255;DHT22;10785;50.674;17.954;2024-03-07T16:36:33;5.60;1.00
21255;DHT22;10785;50.674;17.954;2024-03-07T16:39:04;4.10;1.00
21255;DHT22;10785;50.674;17.954;2024-03-07T16:44:41;4.60;1.00
21255;DHT22;10785;50.674;17.954;2024-03-07T16:47:12;5.20;1.00
21255;DHT22;10785;50.674;17.954;2024-03-07T16:49:42;5.00;1.00
21255;DHT22;10785;50.674;17.954;2024-03-07T16:52:11;5.10;1.00
21255;DHT22;10785;50.674;17.954;2024-03-07T16:54:41;5.30;1.00
21255;DHT22;10785;50.674;17.954;2024-03-07T16:57:11;5.20;1.00
21255;DHT22;10785;50.674;17.954;2024-03-07T16:59:40;5.10;1.00
21255;DHT22;10785;50.674;17.954;2024-03-07T17:02:13;5.20;1.00
21255;DHT22;10785;50.674;17.954;2024-03-07T17:04:50;5.20;1.00
21255;DHT22;10785;50.674;17.954;2024-03-07T17:07:23;5.20;1.00
21255;DHT22;10785;50.674;17.954;2024-03-07T17:09:52;5.10;1.00
21255;DHT22;10785;50.674;17.954;2024-03-07T17:12:24;5.10;1.00
21255;DHT22;10785;50.674;17.954;2024-03-07T17:14:59;5.20;1.00
21255;DHT22;10785;50.674;17.954;2024-03-07T17:17:42;5.00;1.00
21255;DHT22;10785;50.674;17.954;2024-03-07T17:20:20;5.10;1.00
21255;DHT22;10785;50.674;17.954;2024-03-07T17:22:59;5.10;1.00